Time;durP1;ratioP1;P1;durP2;ratioP2;P2;SDS_P1;SDS_P2;PMS_P1;PMS_P2;Temp;Humidity;BMP_temperature;BMP_pressure;BME280_temperature;BME280_humidity;BME280_pressure;Samples;Min_cycle;Max_cycle;Signal;HPM_P1;HPM_P2
2023/09/05 00:00:13;;;;;;;5.60;4.97;;;;;;;18.58;100.00;100708.69;4697186;30;20060;-86
2023/09/05 00:02:39;;;;;;;5.57;4.53;;;;;;;18.61;100.00;100721.69;4705155;30;20507;-86
2023/09/05 00:05:07;;;;;;;6.05;5.07;;;;;;;18.24;100.00;100657.22;4714664;30;20118;-85
2023/09/05 00:07:35;;;;;;;5.35;4.85;;;;;;;18.52;100.00;100706.44;4713940;30;20056;-85
2023/09/05 00:10:01;;;;;;;5.50;4.38;;;;;;;18.44;100.00;100706.94;4714460;30;20041;-85
2023/09/05 00:12:27;;;;;;;7.50;5.07;;;;;;;18.04;100.00;100646.13;4714090;30;20067;-85
2023/09/05 00:14:53;;;;;;;7.43;4.22;;;;;;;18.41;100.00;100707.13;4714062;30;20037;-85
2023/09/05 00:17:18;;;;;;;5.03;4.53;;;;;;;18.24;100.00;100680.94;4723507;30;20116;-86
2023/09/05 00:19:43;;;;;;;5.93;4.57;;;;;;;18.01;100.00;100648.09;4770831;30;20043;-85
2023/09/05 00:22:08;;;;;;;5.25;4.68;;;;;;;18.24;100.00;100699.41;4770959;30;20032;-85
2023/09/05 00:24:37;;;;;;;5.28;4.70;;;;;;;18.23;100.00;100703.84;4786772;30;20055;-85
2023/09/05 00:27:15;;;;;;;7.40;4.95;;;;;;;17.88;100.00;100648.84;4787222;30;20086;-85
2023/09/05 00:29:41;;;;;;;5.32;4.82;;;;;;;18.19;100.00;100715.50;4770739;30;20031;-85
2023/09/05 00:32:07;;;;;;;7.95;5.07;;;;;;;17.95;100.00;100675.69;4787094;30;20134;-85
2023/09/05 00:34:34;;;;;;;6.10;4.70;;;;;;;17.60;100.00;100628.56;4770362;30;20097;-85
2023/09/05 00:37:03;;;;;;;6.00;5.40;;;;;;;17.86;100.00;100684.97;4770952;30;20035;-85
2023/09/05 00:39:29;;;;;;;6.55;5.32;;;;;;;17.82;100.00;100674.72;4770642;30;20436;-85
2023/09/05 00:41:56;;;;;;;7.03;5.20;;;;;;;17.66;100.00;100651.91;4770958;30;20084;-86
2023/09/05 00:44:25;;;;;;;6.60;4.70;;;;;;;17.76;100.00;100683.84;4786950;29;20030;-85
2023/09/05 00:46:55;;;;;;;5.18;4.68;;;;;;;17.61;100.00;100672.44;4786687;30;20469;-86
2023/09/05 00:49:27;;;;;;;6.35;4.53;;;;;;;17.65;100.00;100697.63;4770579;30;20106;-85
2023/09/05 00:51:53;;;;;;;9.55;5.68;;;;;;;17.49;100.00;100680.19;4786955;30;20101;-86
2023/09/05 00:54:18;;;;;;;7.93;5.72;;;;;;;17.45;100.00;100684.81;4786991;30;20023;-85
2023/09/05 00:56:45;;;;;;;7.13;5.13;;;;;;;17.39;100.00;100675.47;4786552;30;20041;-85
2023/09/05 00:59:11;;;;;;;5.85;5.25;;;;;;;16.86;100.00;100589.09;4786785;30;20042;-85
2023/09/05 01:01:37;;;;;;;7.45;5.10;;;;;;;17.12;100.00;100643.69;4770153;30;20047;-85
2023/09/05 01:04:02;;;;;;;6.40;5.15;;;;;;;17.02;100.00;100628.50;4786849;30;20039;-85
2023/09/05 01:07:00;;;;;;;6.65;5.75;;;;;;;17.21;100.00;100666.84;4770384;30;20127;-85
2023/09/05 01:09:34;;;;;;;6.93;5.43;;;;;;;17.11;100.00;100663.06;4772272;30;20035;-85
2023/09/05 01:11:59;;;;;;;5.80;4.63;;;;;;;17.04;100.00;100655.59;4790265;30;20238;-85
2023/09/05 01:14:25;;;;;;;6.32;4.90;;;;;;;17.11;100.00;100681.50;4790322;30;20118;-85
2023/09/05 01:16:50;;;;;;;7.82;5.28;;;;;;;16.93;100.00;100653.56;4790217;30;20047;-86
2023/09/05 01:19:16;;;;;;;6.35;5.22;;;;;;;17.05;100.00;100670.44;4774154;30;20116;-85
2023/09/05 01:21:58;;;;;;;5.88;5.28;;;;;;;16.90;100.00;100654.63;4734242;30;20110;-85
2023/09/05 01:24:24;;;;;;;5.93;5.32;;;;;;;16.89;100.00;100650.25;4734406;30;20789;-85
2023/09/05 01:26:51;;;;;;;7.85;5.32;;;;;;;16.64;100.00;100621.84;4733879;30;20056;-85
2023/09/05 01:29:25;;;;;;;6.10;5.50;;;;;;;16.66;100.00;100627.88;4734413;30;20048;-85
2023/09/05 01:31:52;;;;;;;10.02;6.20;;;;;;;16.66;100.00;100648.06;4734292;30;20048;-86
2023/09/05 01:34:17;;;;;;;6.53;5.43;;;;;;;16.71;100.00;100667.06;4734360;30;20447;-85
2023/09/05 01:36:43;;;;;;;6.07;5.47;;;;;;;16.58;100.00;100656.38;4733829;30;20127;-85
2023/09/05 01:39:08;;;;;;;5.95;5.35;;;;;;;16.44;100.00;100641.38;4734542;30;20523;-85
2023/09/05 01:41:33;;;;;;;6.43;5.57;;;;;;;16.50;100.00;100650.69;4734000;30;20612;-85
2023/09/05 01:43:59;;;;;;;6.22;5.63;;;;;;;16.49;100.00;100643.75;4734056;30;20041;-85
2023/09/05 01:46:25;;;;;;;6.88;5.30;;;;;;;16.51;100.00;100662.06;4734156;30;20222;-86
2023/09/05 01:48:50;;;;;;;6.60;6.00;;;;;;;16.30;100.00;100645.69;4733818;30;20045;-85
2023/09/05 01:51:15;;;;;;;6.85;5.90;;;;;;;16.16;100.00;100630.66;4719490;30;20551;-85
2023/09/05 01:53:41;;;;;;;8.98;6.47;;;;;;;16.14;100.00;100620.25;4784458;30;20047;-85
2023/09/05 01:56:06;;;;;;;6.97;5.57;;;;;;;16.12;100.00;100627.34;4773409;29;20036;-85
2023/09/05 01:58:31;;;;;;;12.60;6.47;;;;;;;16.37;100.00;100681.22;4789107;30;20038;-85
2023/09/05 02:01:01;;;;;;;8.27;6.00;;;;;;;15.98;100.00;100608.84;4789664;30;20059;-84
2023/09/05 02:03:27;;;;;;;8.20;6.35;;;;;;;16.00;100.00;100619.28;4789630;30;20359;-84
2023/09/05 02:05:52;;;;;;;9.90;6.35;;;;;;;16.14;100.00;100643.06;4789473;29;20038;-85
2023/09/05 02:08:17;;;;;;;7.25;6.55;;;;;;;16.02;100.00;100620.06;4773186;30;20032;-85
2023/09/05 02:10:44;;;;;;;9.68;6.07;;;;;;;16.29;100.00;100665.00;4772686;30;20028;-85
2023/09/05 02:13:10;;;;;;;9.15;6.20;;;;;;;16.29;100.00;100660.59;4789787;30;20051;-85
2023/09/05 02:15:36;;;;;;;8.15;6.32;;;;;;;16.29;100.00;100667.66;4772947;30;20035;-85
2023/09/05 02:18:02;;;;;;;7.75;6.38;;;;;;;16.29;100.00;100668.50;4789276;29;20435;-85
2023/09/05 02:20:27;;;;;;;10.90;6.68;;;;;;;16.26;100.00;100655.50;4788969;29;20169;-85
2023/09/05 02:22:53;;;;;;;8.18;6.93;;;;;;;16.34;100.00;100666.44;4788665;30;20397;-85
2023/09/05 02:25:18;;;;;;;7.97;6.30;;;;;;;16.39;100.00;100655.69;4789152;30;20043;-85
2023/09/05 02:27:43;;;;;;;6.18;5.57;;;;;;;16.51;100.00;100672.56;4789279;29;20039;-85
2023/09/05 02:30:09;;;;;;;10.43;6.10;;;;;;;16.38;100.00;100644.31;4789286;29;20046;-85
2023/09/05 02:32:34;;;;;;;7.45;6.35;;;;;;;16.63;100.00;100679.78;4772614;30;20027;-85
2023/09/05 02:35:00;;;;;;;8.27;6.85;;;;;;;16.36;100.00;100635.69;4772933;30;20122;-84
2023/09/05 02:37:26;;;;;;;6.25;5.65;;;;;;;16.65;100.00;100684.03;4788914;29;20115;-85
2023/09/05 02:39:52;;;;;;;8.80;6.40;;;;;;;16.58;100.00;100672.16;4788524;29;20393;-85
2023/09/05 02:42:17;;;;;;;6.50;5.78;;;;;;;16.41;100.00;100638.06;4772780;30;20393;-85
2023/09/05 02:44:42;;;;;;;6.78;5.75;;;;;;;16.50;100.00;100668.25;4788703;30;20035;-85
2023/09/05 02:47:08;;;;;;;8.32;6.28;;;;;;;16.40;100.00;100663.50;4788719;29;20106;-85
2023/09/05 02:49:33;;;;;;;8.90;6.07;;;;;;;16.14;100.00;100616.78;4788515;29;20031;-85
2023/09/05 02:51:59;;;;;;;6.85;5.25;;;;;;;16.28;100.00;100639.66;4788939;29;20039;-85
2023/09/05 02:54:27;;;;;;;7.05;5.47;;;;;;;16.20;100.00;100633.03;4750320;30;20071;-85
2023/09/05 02:56:54;;;;;;;7.03;6.10;;;;;;;16.39;100.00;100677.59;4750037;30;20040;-85
2023/09/05 02:59:20;;;;;;;7.85;5.55;;;;;;;16.27;100.00;100646.72;4750617;30;20135;-85
2023/09/05 03:01:45;;;;;;;6.85;6.10;;;;;;;16.03;100.00;100614.69;4750484;30;20119;-85
2023/09/05 03:04:11;;;;;;;7.60;5.45;;;;;;;16.19;100.00;100643.66;4735589;30;20109;-85
2023/09/05 03:06:36;;;;;;;7.60;6.90;;;;;;;16.08;100.00;100625.81;4750035;30;20039;-85
2023/09/05 03:09:03;;;;;;;7.32;6.15;;;;;;;16.21;100.00;100652.28;4750359;30;20197;-85
2023/09/05 03:11:29;;;;;;;6.45;5.60;;;;;;;16.12;100.00;100637.00;4750557;30;20044;-85
2023/09/05 03:13:54;;;;;;;7.22;5.75;;;;;;;16.03;100.00;100624.38;4750092;30;20139;-85
2023/09/05 03:16:21;;;;;;;8.60;6.68;;;;;;;16.23;100.00;100662.72;4750342;30;20032;-85
2023/09/05 03:18:46;;;;;;;7.70;6.10;;;;;;;16.32;100.00;100665.69;4734880;30;20129;-85
2023/09/05 03:21:12;;;;;;;8.55;7.20;;;;;;;16.36;100.00;100675.13;4750186;30;20407;-85
2023/09/05 03:23:37;;;;;;;8.73;7.05;;;;;;;15.81;100.00;100593.16;4750202;30;20487;-85
2023/09/05 03:26:02;;;;;;;8.52;7.22;;;;;;;16.12;100.00;100647.53;4778162;30;20521;-85
2023/09/05 03:28:42;;;;;;;7.88;6.03;;;;;;;16.15;100.00;100656.09;4788009;30;20043;-85
2023/09/05 03:31:07;;;;;;;7.22;6.50;;;;;;;16.08;100.00;100654.72;4787281;29;20043;-85
2023/09/05 03:33:33;;;;;;;8.02;7.22;;;;;;;16.00;100.00;100656.91;4771674;30;20034;-85
2023/09/05 03:35:58;;;;;;;10.25;7.70;;;;;;;15.63;100.00;100606.28;4787640;30;20545;-85
2023/09/05 03:38:23;;;;;;;8.55;7.10;;;;;;;15.40;100.00;100577.75;4787820;30;20474;-85
2023/09/05 03:40:49;;;;;;;11.80;7.78;;;;;;;15.63;100.00;100635.19;4787613;29;20043;-85
2023/09/05 03:43:14;;;;;;;10.35;7.78;;;;;;;15.45;100.00;100620.34;4788007;30;20035;-85
2023/09/05 03:45:39;;;;;;;8.40;7.15;;;;;;;15.15;100.00;100581.63;4787863;30;20039;-85
2023/09/05 03:48:05;;;;;;;8.63;7.65;;;;;;;15.55;100.00;100654.84;4788027;30;20054;-85
2023/09/05 03:50:30;;;;;;;8.93;7.70;;;;;;;15.56;100.00;100649.53;4771289;29;20036;-85
2023/09/05 03:52:56;;;;;;;9.35;8.38;;;;;;;15.50;100.00;100654.25;4771638;30;20389;-85
2023/09/05 03:55:21;;;;;;;9.73;7.78;;;;;;;15.53;100.00;100657.56;4787708;30;20493;-85
2023/09/05 03:57:47;;;;;;;9.13;8.18;;;;;;;15.45;100.00;100659.72;4787401;30;20035;-85
2023/09/05 04:00:12;;;;;;;9.73;7.90;;;;;;;15.31;100.00;100643.84;4787530;30;20039;-85
2023/09/05 04:02:38;;;;;;;9.98;7.97;;;;;;;15.45;100.00;100664.97;4770876;30;20024;-85
2023/09/05 04:05:04;;;;;;;9.48;8.07;;;;;;;15.29;100.00;100627.31;4787379;30;20063;-85
2023/09/05 04:07:29;;;;;;;10.73;8.30;;;;;;;15.38;100.00;100658.34;4731676;30;20052;-85
2023/09/05 04:09:55;;;;;;;9.93;8.73;;;;;;;15.30;100.00;100653.50;4716982;30;20491;-85
2023/09/05 04:12:20;;;;;;;9.43;7.90;;;;;;;15.17;100.00;100641.91;4731937;30;20047;-85
2023/09/05 04:14:48;;;;;;;9.32;8.18;;;;;;;15.08;100.00;100630.06;4716828;30;20033;-85
2023/09/05 04:17:13;;;;;;;9.88;7.68;;;;;;;15.02;100.00;100627.78;4716990;30;20051;-85
2023/09/05 04:19:39;;;;;;;8.90;7.55;;;;;;;14.88;100.00;100609.25;4731263;30;20513;-85
2023/09/05 04:22:04;;;;;;;9.80;8.10;;;;;;;15.12;100.00;100649.16;4731752;30;20044;-85
2023/09/05 04:24:29;;;;;;;10.85;8.60;;;;;;;15.04;100.00;100633.78;4731302;30;20059;-85
2023/09/05 04:26:55;;;;;;;11.52;8.50;;;;;;;15.12;100.00;100644.75;4716652;30;20041;-85
2023/09/05 04:29:20;;;;;;;13.60;9.57;;;;;;;15.09;100.00;100646.69;4731374;30;20036;-86
2023/09/05 04:31:46;;;;;;;12.35;9.98;;;;;;;15.14;100.00;100669.16;4731386;30;20053;-85
2023/09/05 04:34:12;;;;;;;13.52;9.10;;;;;;;14.95;100.00;100642.94;4717220;30;20102;-85
2023/09/05 04:36:37;;;;;;;11.02;9.45;;;;;;;15.10;100.00;100661.50;4731302;30;20040;-85
2023/09/05 04:39:03;;;;;;;13.85;9.48;;;;;;;15.13;100.00;100658.75;4771762;29;20040;-84
2023/09/05 04:41:29;;;;;;;10.60;9.50;;;;;;;15.00;100.00;100636.63;4771004;30;20477;-85
2023/09/05 04:43:54;;;;;;;12.20;9.07;;;;;;;15.26;100.00;100677.34;4770447;30;20130;-85
2023/09/05 04:46:19;;;;;;;11.10;9.50;;;;;;;15.28;100.00;100668.47;4770860;30;20436;-85
2023/09/05 04:48:45;;;;;;;11.88;9.82;;;;;;;15.21;100.00;100644.31;4770356;30;20042;-85
2023/09/05 04:51:10;;;;;;;10.95;9.23;;;;;;;15.07;100.00;100615.25;4766660;30;20079;-85
2023/09/05 04:53:35;;;;;;;12.52;9.60;;;;;;;15.34;100.00;100669.94;4751914;30;20138;-85
2023/09/05 04:56:02;;;;;;;13.68;10.05;;;;;;;15.45;100.00;100671.09;4766503;30;20481;-85
2023/09/05 04:58:29;;;;;;;13.40;9.88;;;;;;;15.35;100.00;100648.00;4766590;30;20475;-85
2023/09/05 05:01:02;;;;;;;12.65;11.10;;;;;;;15.46;100.00;100661.44;4766383;30;20082;-85
2023/09/05 05:03:32;;;;;;;13.63;10.38;;;;;;;15.56;100.00;100675.81;4766545;30;20038;-86
2023/09/05 05:05:58;;;;;;;15.90;10.57;;;;;;;15.63;100.00;100682.44;4766303;30;20050;-85
2023/09/05 05:08:24;;;;;;;15.10;12.45;;;;;;;15.75;100.00;100675.72;4751674;30;20039;-85
2023/09/05 05:10:49;;;;;;;17.83;11.95;;;;;;;15.67;100.00;100641.13;4766049;30;20498;-86
2023/09/05 05:13:14;;;;;;;16.67;10.98;;;;;;;15.93;100.00;100655.56;4766383;30;20526;-85
2023/09/05 05:15:40;;;;;;;11.65;10.13;;;;;;;16.17;100.00;100641.06;4766291;30;20540;-85
2023/09/05 05:18:05;;;;;;;13.52;11.38;;;;;;;16.60;100.00;100678.19;4766093;30;20591;-85
2023/09/05 05:20:31;;;;;;;14.00;10.68;;;;;;;16.74;100.00;100659.03;4751228;30;20448;-86
2023/09/05 05:22:56;;;;;;;12.70;11.05;;;;;;;16.99;100.00;100674.28;4769988;30;20427;-86
2023/09/05 05:25:22;;;;;;;11.90;10.77;;;;;;;17.25;100.00;100679.84;4770241;30;20050;-86
2023/09/05 05:27:47;;;;;;;12.18;10.18;;;;;;;17.44;100.00;100677.81;4770143;30;20047;-86
2023/09/05 05:30:12;;;;;;;11.95;10.75;;;;;;;17.54;100.00;100655.28;4770288;30;20027;-86
2023/09/05 05:32:38;;;;;;;11.95;10.70;;;;;;;17.83;100.00;100671.16;4769996;30;20043;-86
2023/09/05 05:35:04;;;;;;;10.77;9.63;;;;;;;18.04;100.00;100674.28;4786377;30;20040;-85
2023/09/05 05:37:29;;;;;;;11.90;8.90;;;;;;;18.13;100.00;100657.91;4748065;30;20154;-85
2023/09/05 05:39:54;;;;;;;11.15;9.82;;;;;;;18.47;100.00;100692.72;4748248;30;20087;-85
2023/09/05 05:42:20;;;;;;;12.02;9.57;;;;;;;18.61;100.00;100690.03;4733690;30;20071;-86
2023/09/05 05:44:45;;;;;;;10.63;9.07;;;;;;;18.55;100.00;100653.50;4748099;30;20082;-86
2023/09/05 05:47:11;;;;;;;10.30;9.00;;;;;;;18.89;100.00;100691.81;4748368;30;20079;-86
2023/09/05 05:49:36;;;;;;;10.20;8.70;;;;;;;18.90;100.00;100651.25;4733752;30;20442;-86
2023/09/05 05:52:02;;;;;;;9.57;8.55;;;;;;;19.25;100.00;100675.31;4733342;30;20044;-86
2023/09/05 05:54:28;;;;;;;9.75;8.40;;;;;;;19.55;99.81;100706.78;4734551;30;20036;-86
2023/09/05 05:56:57;;;;;;;12.85;7.97;;;;;;;19.36;100.00;100662.25;4751185;30;20059;-86
2023/09/05 05:59:24;;;;;;;12.57;7.68;;;;;;;19.48;98.98;100691.44;4736728;30;20032;-86
2023/09/05 06:01:51;;;;;;;8.38;7.45;;;;;;;19.40;98.91;100674.31;4751132;30;20477;-85
2023/09/05 06:04:16;;;;;;;10.68;8.50;;;;;;;19.52;98.88;100682.38;4751443;30;20518;-86
2023/09/05 06:06:43;;;;;;;8.85;7.45;;;;;;;19.56;98.09;100674.13;4751106;30;20036;-86
2023/09/05 06:09:09;;;;;;;9.65;7.63;;;;;;;19.88;97.95;100692.25;4780582;30;20043;-85
2023/09/05 06:11:34;;;;;;;8.35;7.07;;;;;;;19.93;97.42;100676.91;4773310;30;20404;-86
2023/09/05 06:14:00;;;;;;;6.50;5.72;;;;;;;20.26;95.56;100692.22;4773028;30;20027;-86
2023/09/05 06:16:25;;;;;;;7.15;5.80;;;;;;;20.34;95.39;100652.00;4773027;30;20039;-86
2023/09/05 06:18:51;;;;;;;9.68;6.43;;;;;;;20.83;94.42;100672.31;4772829;30;20031;-86
2023/09/05 06:21:16;;;;;;;5.80;5.18;;;;;;;21.34;93.35;100696.78;4789639;30;20035;-86
2023/09/05 06:23:41;;;;;;;6.95;5.70;;;;;;;21.32;90.44;100656.31;4773189;30;20024;-86
2023/09/05 06:26:07;;;;;;;7.35;5.40;;;;;;;21.75;90.23;100678.69;4788758;30;20430;-86
2023/09/05 06:28:32;;;;;;;10.40;5.80;;;;;;;21.88;86.99;100671.47;4772755;30;20038;-86
2023/09/05 06:30:58;;;;;;;5.72;5.00;;;;;;;21.82;86.38;100656.03;4772557;30;20087;-86
2023/09/05 06:33:24;;;;;;;10.07;5.47;;;;;;;22.14;86.46;100669.47;4789277;29;20039;-86
2023/09/05 06:35:49;;;;;;;6.45;5.00;;;;;;;22.32;85.60;100653.88;4772668;30;20040;-86
2023/09/05 06:38:15;;;;;;;6.65;4.93;;;;;;;22.70;83.21;100690.63;4772735;30;20389;-86
2023/09/05 06:40:40;;;;;;;6.15;5.00;;;;;;;22.95;82.65;100686.00;4788779;30;20069;-86
2023/09/05 06:43:08;;;;;;;7.07;4.72;;;;;;;22.91;81.45;100659.69;4772431;30;20031;-86
2023/09/05 06:45:34;;;;;;;6.15;4.22;;;;;;;23.30;82.38;100667.13;4788681;30;20450;-86
2023/09/05 06:47:59;;;;;;;6.47;4.57;;;;;;;23.38;80.14;100673.50;4788748;30;20077;-85
2023/09/05 06:50:25;;;;;;;6.45;4.65;;;;;;;23.64;79.49;100686.44;4772725;30;20063;-85
2023/09/05 06:52:50;;;;;;;5.57;4.97;;;;;;;23.13;78.86;100637.53;4788364;30;20039;-85
2023/09/05 06:55:15;;;;;;;5.32;4.25;;;;;;;23.49;80.30;100675.25;4772503;30;20027;-85
2023/09/05 06:57:41;;;;;;;6.28;4.85;;;;;;;23.56;79.56;100625.06;4772359;30;20028;-85
2023/09/05 07:00:07;;;;;;;5.57;4.70;;;;;;;24.05;78.98;100650.94;4788491;30;20096;-85
2023/09/05 07:02:33;;;;;;;5.95;4.15;;;;;;;24.29;77.90;100624.00;4772344;30;20038;-86
2023/09/05 07:05:18;;;;;;;5.28;4.65;;;;;;;24.99;76.97;100680.78;4772147;29;20031;-94
2023/09/05 07:15:20;;;;;;;4.18;3.58;;;;;;;25.41;73.46;100691.22;4751230;30;20115;-92
2023/09/05 07:22:27;;;;;;;4.63;3.70;;;;;;;26.16;70.49;100686.81;4596929;31;20066;-93
2023/09/05 08:54:29;;;;;;;9.27;5.72;;;;;;;23.68;70.42;100689.69;4775042;30;20055;-91
2023/09/05 08:57:59;;;;;;;7.80;5.38;;;;;;;23.13;71.80;100628.69;4682196;30;20145;-93
2023/09/05 09:01:08;;;;;;;6.45;5.35;;;;;;;23.64;70.45;100697.06;4665620;30;20066;-94
2023/09/05 09:04:21;;;;;;;5.85;4.40;;;;;;;23.11;71.82;100626.16;4647944;30;20104;-93
2023/09/05 09:07:46;;;;;;;8.27;4.93;;;;;;;23.56;70.14;100689.72;4613217;31;20076;-93
2023/09/05 09:10:40;;;;;;;9.93;5.25;;;;;;;23.36;69.96;100674.59;4580148;31;20097;-93
2023/09/05 09:13:27;;;;;;;10.38;5.15;;;;;;;23.26;71.16;100677.22;4547421;31;20045;-92
2023/09/05 09:15:53;;;;;;;8.82;5.60;;;;;;;23.31;72.28;100684.78;4548551;31;20068;-92
2023/09/05 09:18:20;;;;;;;6.63;4.70;;;;;;;23.41;72.35;100683.03;4549076;31;20574;-91
2023/09/05 09:20:49;;;;;;;6.07;4.68;;;;;;;23.24;71.62;100639.25;4547734;31;20477;-91
2023/09/05 09:23:27;;;;;;;8.70;4.85;;;;;;;23.02;71.68;100634.06;4546600;31;20501;-91
2023/09/05 09:25:54;;;;;;;4.78;4.20;;;;;;;23.20;70.63;100684.84;4551107;31;20050;-92
2023/09/05 09:28:28;;;;;;;5.80;4.50;;;;;;;23.23;69.99;100682.78;4551849;31;20121;-91
2023/09/05 09:31:01;;;;;;;6.25;4.72;;;;;;;22.96;69.16;100675.25;4555180;31;20564;-91
2023/09/05 09:33:29;;;;;;;5.30;4.18;;;;;;;22.98;70.72;100681.28;4553831;31;20052;-92
2023/09/05 09:36:00;;;;;;;4.00;3.60;;;;;;;23.09;70.58;100670.63;4555511;31;20409;-91
2023/09/05 09:38:28;;;;;;;5.93;4.60;;;;;;;23.18;70.09;100678.81;4556235;31;20263;-91
2023/09/05 09:40:55;;;;;;;4.60;4.18;;;;;;;23.29;70.97;100671.59;4552317;31;20046;-91
2023/09/05 09:43:21;;;;;;;5.57;4.25;;;;;;;23.36;71.21;100680.75;4540405;31;20060;-91
2023/09/05 09:45:47;;;;;;;5.43;4.45;;;;;;;23.47;72.67;100671.03;4514962;31;20077;-91
2023/09/05 09:48:18;;;;;;;6.10;4.70;;;;;;;23.25;72.54;100606.38;4523283;31;20081;-91
2023/09/05 09:50:45;;;;;;;4.85;4.10;;;;;;;23.23;69.98;100596.88;4541327;31;20042;-91
2023/09/05 09:53:22;;;;;;;7.45;4.55;;;;;;;23.26;68.63;100604.56;4569355;31;20063;-92
2023/09/05 09:55:51;;;;;;;11.75;4.78;;;;;;;23.40;69.24;100658.28;4636879;30;20066;-92
2023/09/05 09:58:21;;;;;;;5.47;4.50;;;;;;;23.28;69.68;100661.13;4685145;30;20038;-92
2023/09/05 10:00:49;;;;;;;5.85;4.60;;;;;;;23.21;69.10;100655.47;4685146;30;20057;-92
2023/09/05 10:03:16;;;;;;;6.32;4.75;;;;;;;23.12;69.37;100653.56;4685026;30;20037;-93
2023/09/05 10:05:42;;;;;;;6.72;4.70;;;;;;;22.94;69.61;100660.41;4697985;30;20037;-93
2023/09/05 10:08:09;;;;;;;11.13;5.35;;;;;;;22.61;70.61;100599.28;4773619;30;20043;-94
2023/09/05 10:10:39;;;;;;;4.90;4.40;;;;;;;22.78;70.09;100607.69;4773721;30;20547;-92
2023/09/05 10:13:08;;;;;;;6.93;4.50;;;;;;;23.07;68.58;100663.75;4773532;30;20055;-93
2023/09/05 10:15:36;;;;;;;4.97;4.47;;;;;;;22.88;67.79;100645.78;4773802;30;20085;-93
2023/09/05 10:18:02;;;;;;;6.88;4.60;;;;;;;22.90;69.56;100654.50;4773438;30;20074;-92
2023/09/05 10:20:31;;;;;;;8.05;5.03;;;;;;;22.81;69.81;100661.41;4772176;30;20037;-92
2023/09/05 10:22:57;;;;;;;6.65;4.47;;;;;;;22.53;69.10;100625.59;4788779;29;20042;-93
2023/09/05 10:25:23;;;;;;;4.60;4.20;;;;;;;22.63;69.88;100626.56;4791120;29;20082;-92
2023/09/05 10:27:49;;;;;;;6.80;4.22;;;;;;;22.59;71.05;100598.56;4791493;29;20509;-92
2023/09/05 10:30:15;;;;;;;6.60;4.65;;;;;;;22.97;69.92;100646.91;4791186;29;20031;-92
2023/09/05 10:32:42;;;;;;;7.00;4.45;;;;;;;22.94;69.52;100637.34;4791277;29;20046;-92
2023/09/05 10:35:08;;;;;;;5.50;4.25;;;;;;;23.01;69.21;100654.47;4791202;29;20031;-93
2023/09/05 10:37:33;;;;;;;7.95;4.78;;;;;;;22.93;68.07;100646.31;4791371;29;20520;-92
2023/09/05 10:40:07;;;;;;;6.63;3.75;;;;;;;22.60;67.63;100604.72;4790912;29;20058;-91
2023/09/05 10:42:34;;;;;;;9.40;4.68;;;;;;;22.61;68.41;100635.63;4791073;29;20114;-94
2023/09/05 10:45:16;;;;;;;6.20;4.05;;;;;;;22.53;68.32;100644.19;4791428;29;20132;-93
2023/09/05 10:47:41;;;;;;;7.55;4.00;;;;;;;22.57;70.40;100650.94;4791229;29;20497;-92
2023/09/05 10:50:09;;;;;;;5.70;4.50;;;;;;;22.69;69.28;100635.00;4790994;29;20035;-91
2023/09/05 10:52:35;;;;;;;5.45;4.03;;;;;;;22.80;70.27;100632.31;4790581;29;20051;-92
2023/09/05 10:55:29;;;;;;;4.32;3.92;;;;;;;23.01;71.34;100632.38;4790771;29;20034;-92
2023/09/05 10:57:56;;;;;;;5.78;4.05;;;;;;;22.88;68.86;100613.91;4790872;29;20481;-92
2023/09/05 11:00:22;;;;;;;5.10;4.03;;;;;;;22.81;67.86;100620.72;4790656;29;20038;-93
2023/09/05 11:02:48;;;;;;;4.72;3.65;;;;;;;22.56;69.29;100596.16;4790734;29;20560;-92
2023/09/05 11:05:18;;;;;;;4.38;3.50;;;;;;;22.67;68.67;100601.44;4790371;29;20171;-92
2023/09/05 11:07:44;;;;;;;4.90;4.10;;;;;;;22.79;67.84;100617.31;4791615;29;20129;-92
2023/09/05 11:10:26;;;;;;;6.05;3.85;;;;;;;22.75;67.08;100611.41;4790335;29;20481;-91
2023/09/05 11:12:52;;;;;;;4.90;4.03;;;;;;;22.81;66.95;100612.75;4790483;29;20031;-93
2023/09/05 11:15:30;;;;;;;4.82;3.88;;;;;;;22.72;65.95;100610.84;4790482;29;20477;-92
2023/09/05 11:18:06;;;;;;;5.20;3.80;;;;;;;22.61;68.01;100586.00;4790462;29;20142;-92
2023/09/05 11:20:40;;;;;;;5.60;3.65;;;;;;;22.88;66.70;100619.22;4790034;29;20401;-92
2023/09/05 11:23:16;;;;;;;6.32;4.00;;;;;;;22.81;66.88;100602.97;4790327;29;20038;-92
2023/09/05 11:25:42;;;;;;;5.82;3.55;;;;;;;22.64;66.11;100569.81;4790456;29;20081;-92
2023/09/05 11:28:08;;;;;;;5.22;4.22;;;;;;;22.97;66.54;100612.34;4789868;29;20046;-88
2023/09/05 11:30:46;;;;;;;7.18;3.97;;;;;;;22.99;63.92;100597.13;4788017;29;20061;-93
2023/09/05 11:33:16;;;;;;;6.00;3.72;;;;;;;22.94;64.73;100592.19;4787222;30;20047;-93
2023/09/05 11:35:56;;;;;;;5.22;4.43;;;;;;;22.90;65.87;100590.75;4790480;30;20435;-94
2023/09/05 11:38:23;;;;;;;4.72;3.80;;;;;;;22.96;66.10;100584.91;4771479;30;20035;-88
2023/09/05 11:40:52;;;;;;;6.88;3.75;;;;;;;23.13;66.79;100591.47;4771506;30;20035;-89
2023/09/05 11:43:18;;;;;;;5.18;3.60;;;;;;;23.12;65.65;100582.66;4771406;30;20039;-88
2023/09/05 11:45:45;;;;;;;4.88;3.78;;;;;;;23.24;65.45;100587.91;4771499;30;20389;-89
2023/09/05 11:48:14;;;;;;;5.35;3.45;;;;;;;23.12;63.89;100587.13;4771396;30;20100;-89
2023/09/05 11:50:41;;;;;;;6.45;3.97;;;;;;;23.14;64.67;100574.59;4772331;30;20039;-89
2023/09/05 11:53:10;;;;;;;5.85;3.70;;;;;;;23.21;66.02;100561.59;4771298;30;20047;-89
2023/09/05 11:55:36;;;;;;;5.80;4.10;;;;;;;23.40;65.83;100583.00;4771613;30;20031;-89
2023/09/05 11:58:02;;;;;;;8.65;4.72;;;;;;;23.30;62.89;100576.75;4771147;29;20501;-89
2023/09/05 12:00:28;;;;;;;9.80;4.47;;;;;;;23.27;62.45;100577.03;4771339;29;20112;-89
2023/09/05 12:02:56;;;;;;;5.00;3.92;;;;;;;23.24;63.77;100570.16;4771461;30;20398;-89
2023/09/05 12:05:22;;;;;;;5.07;3.92;;;;;;;23.27;64.67;100567.25;4771040;30;20039;-89
2023/09/05 12:07:55;;;;;;;6.38;4.13;;;;;;;23.33;62.52;100544.59;4771252;30;20054;-89
2023/09/05 12:10:24;;;;;;;7.28;3.90;;;;;;;23.22;63.06;100518.09;4770955;30;20031;-89
2023/09/05 12:12:54;;;;;;;4.80;3.97;;;;;;;23.41;64.32;100542.13;4771141;29;20104;-89
2023/09/05 12:15:34;;;;;;;4.55;3.78;;;;;;;23.49;63.64;100549.44;4770898;30;20363;-89
2023/09/05 12:18:05;;;;;;;4.78;3.80;;;;;;;23.54;64.64;100547.22;4771007;30;20031;-89
2023/09/05 12:20:31;;;;;;;4.43;3.88;;;;;;;23.53;63.89;100546.38;4770860;30;20406;-89
2023/09/05 12:22:57;;;;;;;5.13;3.85;;;;;;;23.56;63.87;100537.31;4770889;30;20126;-89
2023/09/05 12:25:24;;;;;;;4.15;3.22;;;;;;;23.58;63.10;100528.22;4770870;30;20123;-89
2023/09/05 12:27:55;;;;;;;7.35;4.82;;;;;;;23.51;63.56;100512.91;4770931;30;20100;-90
2023/09/05 12:30:26;;;;;;;4.53;3.60;;;;;;;23.45;62.65;100497.50;4770657;30;20037;-89
2023/09/05 12:32:59;;;;;;;;;;;;;;;23.72;64.40;100528.84;4771220;30;20360;-88
2023/09/05 12:35:26;;;;;;;4.30;3.60;;;;;;;23.50;64.25;100460.72;4770570;30;20004;-89
2023/09/05 12:37:55;;;;;;;6.30;4.25;;;;;;;23.99;63.88;100531.75;4766409;30;20050;-89
2023/09/05 12:40:25;;;;;;;4.00;3.60;;;;;;;24.00;63.31;100508.63;4766532;30;20044;-88
2023/09/05 12:42:51;;;;;;;5.90;4.15;;;;;;;24.14;63.79;100513.56;4751678;30;20058;-89
2023/09/05 12:45:18;;;;;;;4.80;4.25;;;;;;;24.20;62.97;100520.16;4750634;30;20537;-89
2023/09/05 12:47:49;;;;;;;6.10;3.85;;;;;;;23.83;62.80;100451.59;4751667;30;20043;-89
2023/09/05 12:50:15;;;;;;;5.22;4.10;;;;;;;24.28;62.59;100513.16;4751409;30;20039;-89
2023/09/05 12:52:44;;;;;;;4.85;4.10;;;;;;;24.32;63.72;100506.59;4751269;30;20085;-89
2023/09/05 12:55:13;;;;;;;5.35;3.88;;;;;;;24.43;62.23;100513.63;4751746;30;20074;-89
2023/09/05 12:57:39;;;;;;;4.30;3.90;;;;;;;24.13;63.17;100442.69;4751522;30;20039;-89
2023/09/05 13:00:07;;;;;;;5.93;4.18;;;;;;;24.53;63.12;100503.00;4751479;30;20032;-89
2023/09/05 13:02:33;;;;;;;5.63;4.38;;;;;;;24.55;63.10;100493.84;4745273;30;20524;-89
2023/09/05 13:04:59;;;;;;;5.32;4.30;;;;;;;24.49;63.57;100506.91;4766266;30;20047;-89